In Rescue
 
Open Full Screen Window  High Contrast Mode
Wind Gusting 00 knots
05
October 25, 2021 5:09 PM EDT
Present Weather: Light Rain
Weather Information
Wind Direction
  330 °
Wind Speed
  05 kt (6 mph)
Wind Gust
  00 kt (0 mph)
Altimeter
29.69 in
Visibility
10 SM
Temperature
11° C
52° F
Dewpoint
10° C
50° F
Humidity
94%
Sky Condition
Overcast @ 500 ft
IFR

METAR KAXV 252109Z AUTO 33005KT 10SM -RA OVC005 11/10 A2969 RMK AO2

FAA Disclaimer: The data displayed is for advisory purposes only and is not to be used for flight planning or operations.